sensor_id;sensor_type;location;lat;lon;timestamp;temperature;humidity
7970;DHT22;4030;52.362;9.206;2023-07-20T00:00:07;21.00;64.90
7970;DHT22;4030;52.362;9.206;2023-07-20T00:02:32;21.00;64.90
7970;DHT22;4030;52.362;9.206;2023-07-20T00:04:58;21.00;65.00
7970;DHT22;4030;52.362;9.206;2023-07-20T00:07:25;21.00;65.00
7970;DHT22;4030;52.362;9.206;2023-07-20T00:09:50;20.90;65.00
7970;DHT22;4030;52.362;9.206;2023-07-20T00:12:16;20.80;65.00
7970;DHT22;4030;52.362;9.206;2023-07-20T00:14:42;20.90;65.20
7970;DHT22;4030;52.362;9.206;2023-07-20T00:17:07;20.90;65.30
7970;DHT22;4030;52.362;9.206;2023-07-20T00:19:33;20.90;65.40
7970;DHT22;4030;52.362;9.206;2023-07-20T00:22:00;20.80;65.30
7970;DHT22;4030;52.362;9.206;2023-07-20T00:24:26;20.80;65.50
7970;DHT22;4030;52.362;9.206;2023-07-20T00:26:52;20.80;65.50
7970;DHT22;4030;52.362;9.206;2023-07-20T00:29:18;20.80;65.60
7970;DHT22;4030;52.362;9.206;2023-07-20T00:31:43;20.70;65.50
7970;DHT22;4030;52.362;9.206;2023-07-20T00:34:09;20.70;65.50
7970;DHT22;4030;52.362;9.206;2023-07-20T00:36:35;20.80;65.70
7970;DHT22;4030;52.362;9.206;2023-07-20T00:39:00;20.70;65.70
7970;DHT22;4030;52.362;9.206;2023-07-20T00:41:26;20.80;65.80
7970;DHT22;4030;52.362;9.206;2023-07-20T00:43:55;20.70;65.70
7970;DHT22;4030;52.362;9.206;2023-07-20T00:46:23;20.70;65.80
7970;DHT22;4030;52.362;9.206;2023-07-20T00:48:52;20.70;65.90
7970;DHT22;4030;52.362;9.206;2023-07-20T00:51:19;20.70;66.00
7970;DHT22;4030;52.362;9.206;2023-07-20T00:53:45;20.60;65.90
7970;DHT22;4030;52.362;9.206;2023-07-20T00:56:11;20.60;65.90
7970;DHT22;4030;52.362;9.206;2023-07-20T00:58:37;20.60;66.00
7970;DHT22;4030;52.362;9.206;2023-07-20T01:01:03;20.60;66.00
7970;DHT22;4030;52.362;9.206;2023-07-20T01:03:29;20.60;66.10
7970;DHT22;4030;52.362;9.206;2023-07-20T01:08:46;20.50;66.20
7970;DHT22;4030;52.362;9.206;2023-07-20T01:11:43;20.60;66.30
7970;DHT22;4030;52.362;9.206;2023-07-20T01:14:18;20.60;66.30
7970;DHT22;4030;52.362;9.206;2023-07-20T01:16:44;20.60;66.50
7970;DHT22;4030;52.362;9.206;2023-07-20T01:19:10;20.50;66.40
7970;DHT22;4030;52.362;9.206;2023-07-20T01:27:51;20.50;66.60
7970;DHT22;4030;52.362;9.206;2023-07-20T01:33:25;20.50;66.80
7970;DHT22;4030;52.362;9.206;2023-07-20T01:35:55;20.50;66.90
7970;DHT22;4030;52.362;9.206;2023-07-20T01:38:23;20.50;67.00
7970;DHT22;4030;52.362;9.206;2023-07-20T01:40:49;20.50;67.10
7970;DHT22;4030;52.362;9.206;2023-07-20T01:43:16;20.40;67.00
7970;DHT22;4030;52.362;9.206;2023-07-20T01:45:41;20.50;67.20
7970;DHT22;4030;52.362;9.206;2023-07-20T01:48:07;20.40;67.20
7970;DHT22;4030;52.362;9.206;2023-07-20T01:50:33;20.40;67.20
7970;DHT22;4030;52.362;9.206;2023-07-20T01:53:00;20.50;67.40
7970;DHT22;4030;52.362;9.206;2023-07-20T01:55:26;20.40;67.50
7970;DHT22;4030;52.362;9.206;2023-07-20T01:57:52;20.40;67.60
7970;DHT22;4030;52.362;9.206;2023-07-20T02:00:18;20.40;67.70
7970;DHT22;4030;52.362;9.206;2023-07-20T02:02:46;20.30;67.60
7970;DHT22;4030;52.362;9.206;2023-07-20T02:05:12;20.30;67.70
7970;DHT22;4030;52.362;9.206;2023-07-20T02:07:38;20.30;67.70
7970;DHT22;4030;52.362;9.206;2023-07-20T02:10:05;20.30;67.80
7970;DHT22;4030;52.362;9.206;2023-07-20T02:12:31;20.30;68.00
7970;DHT22;4030;52.362;9.206;2023-07-20T02:14:56;20.30;68.00
7970;DHT22;4030;52.362;9.206;2023-07-20T02:17:22;20.30;68.20
7970;DHT22;4030;52.362;9.206;2023-07-20T02:19:52;20.30;68.20
7970;DHT22;4030;52.362;9.206;2023-07-20T02:22:18;20.20;68.20
7970;DHT22;4030;52.362;9.206;2023-07-20T02:24:44;20.20;68.30
7970;DHT22;4030;52.362;9.206;2023-07-20T02:27:10;20.20;68.30
7970;DHT22;4030;52.362;9.206;2023-07-20T02:29:35;20.20;68.30
7970;DHT22;4030;52.362;9.206;2023-07-20T02:32:01;20.30;68.60
7970;DHT22;4030;52.362;9.206;2023-07-20T02:34:27;20.20;68.40
7970;DHT22;4030;52.362;9.206;2023-07-20T02:36:53;20.20;68.50
7970;DHT22;4030;52.362;9.206;2023-07-20T02:39:21;20.20;68.60
7970;DHT22;4030;52.362;9.206;2023-07-20T02:41:47;20.20;68.70
7970;DHT22;4030;52.362;9.206;2023-07-20T02:44:14;20.20;68.60
7970;DHT22;4030;52.362;9.206;2023-07-20T02:46:40;20.20;68.70
7970;DHT22;4030;52.362;9.206;2023-07-20T02:49:06;20.20;68.80
7970;DHT22;4030;52.362;9.206;2023-07-20T02:51:32;20.20;68.80
7970;DHT22;4030;52.362;9.206;2023-07-20T02:53:57;20.20;68.90
7970;DHT22;4030;52.362;9.206;2023-07-20T02:56:23;20.20;68.90
7970;DHT22;4030;52.362;9.206;2023-07-20T02:58:49;20.00;68.80
7970;DHT22;4030;52.362;9.206;2023-07-20T03:01:15;20.10;68.90
7970;DHT22;4030;52.362;9.206;2023-07-20T03:03:42;20.20;69.10
7970;DHT22;4030;52.362;9.206;2023-07-20T03:06:15;20.10;69.00
7970;DHT22;4030;52.362;9.206;2023-07-20T03:08:42;20.10;69.20
7970;DHT22;4030;52.362;9.206;2023-07-20T03:11:15;20.10;69.30
7970;DHT22;4030;52.362;9.206;2023-07-20T03:13:42;20.10;69.30
7970;DHT22;4030;52.362;9.206;2023-07-20T03:16:08;20.20;69.50
7970;DHT22;4030;52.362;9.206;2023-07-20T03:18:37;20.10;69.40
7970;DHT22;4030;52.362;9.206;2023-07-20T03:21:04;20.20;69.60
7970;DHT22;4030;52.362;9.206;2023-07-20T03:23:31;20.10;69.50
7970;DHT22;4030;52.362;9.206;2023-07-20T03:25:57;20.10;69.60
7970;DHT22;4030;52.362;9.206;2023-07-20T03:28:23;20.10;69.80
7970;DHT22;4030;52.362;9.206;2023-07-20T03:30:56;20.10;69.80
7970;DHT22;4030;52.362;9.206;2023-07-20T03:33:24;20.10;69.90
7970;DHT22;4030;52.362;9.206;2023-07-20T03:35:50;20.10;70.00
7970;DHT22;4030;52.362;9.206;2023-07-20T03:38:16;20.10;70.10
7970;DHT22;4030;52.362;9.206;2023-07-20T03:40:59;20.10;70.20
7970;DHT22;4030;52.362;9.206;2023-07-20T03:43:27;20.10;70.30
7970;DHT22;4030;52.362;9.206;2023-07-20T03:45:53;20.00;70.40
7970;DHT22;4030;52.362;9.206;2023-07-20T03:48:21;20.10;70.60
7970;DHT22;4030;52.362;9.206;2023-07-20T03:50:50;20.00;70.70
7970;DHT22;4030;52.362;9.206;2023-07-20T03:53:16;20.00;70.90
7970;DHT22;4030;52.362;9.206;2023-07-20T03:55:47;20.00;71.00
7970;DHT22;4030;52.362;9.206;2023-07-20T03:58:14;20.00;71.20
7970;DHT22;4030;52.362;9.206;2023-07-20T04:00:46;20.00;71.30
7970;DHT22;4030;52.362;9.206;2023-07-20T04:03:13;20.00;71.50
7970;DHT22;4030;52.362;9.206;2023-07-20T04:05:39;20.00;71.60
7970;DHT22;4030;52.362;9.206;2023-07-20T04:08:05;20.00;71.80
7970;DHT22;4030;52.362;9.206;2023-07-20T04:10:30;20.00;72.10
7970;DHT22;4030;52.362;9.206;2023-07-20T04:12:56;20.00;72.10
7970;DHT22;4030;52.362;9.206;2023-07-20T04:15:22;19.90;72.10
7970;DHT22;4030;52.362;9.206;2023-07-20T04:17:47;19.90;72.30
7970;DHT22;4030;52.362;9.206;2023-07-20T04:20:13;20.00;72.50
7970;DHT22;4030;52.362;9.206;2023-07-20T04:22:39;19.90;72.50
7970;DHT22;4030;52.362;9.206;2023-07-20T04:25:05;19.90;72.70
7970;DHT22;4030;52.362;9.206;2023-07-20T04:27:31;19.90;72.80
7970;DHT22;4030;52.362;9.206;2023-07-20T04:29:58;19.90;72.90
7970;DHT22;4030;52.362;9.206;2023-07-20T04:32:25;19.90;73.00
7970;DHT22;4030;52.362;9.206;2023-07-20T04:34:51;19.90;73.00
7970;DHT22;4030;52.362;9.206;2023-07-20T04:37:17;19.90;73.20
7970;DHT22;4030;52.362;9.206;2023-07-20T04:39:42;19.90;73.30
7970;DHT22;4030;52.362;9.206;2023-07-20T04:42:08;19.90;73.30
7970;DHT22;4030;52.362;9.206;2023-07-20T04:44:34;19.90;73.40
7970;DHT22;4030;52.362;9.206;2023-07-20T04:46:59;19.90;73.40
7970;DHT22;4030;52.362;9.206;2023-07-20T04:49:25;19.90;73.60
7970;DHT22;4030;52.362;9.206;2023-07-20T04:51:51;19.90;73.60
7970;DHT22;4030;52.362;9.206;2023-07-20T04:54:17;19.90;73.70
7970;DHT22;4030;52.362;9.206;2023-07-20T04:56:44;19.90;73.70
7970;DHT22;4030;52.362;9.206;2023-07-20T04:59:10;19.90;73.90
7970;DHT22;4030;52.362;9.206;2023-07-20T05:01:35;19.90;73.90
7970;DHT22;4030;52.362;9.206;2023-07-20T05:04:02;19.90;74.10
7970;DHT22;4030;52.362;9.206;2023-07-20T05:06:27;19.90;74.00
7970;DHT22;4030;52.362;9.206;2023-07-20T05:08:53;19.90;74.10
7970;DHT22;4030;52.362;9.206;2023-07-20T05:11:19;19.90;74.10
7970;DHT22;4030;52.362;9.206;2023-07-20T05:13:45;19.90;74.20
7970;DHT22;4030;52.362;9.206;2023-07-20T05:16:11;19.80;74.20
7970;DHT22;4030;52.362;9.206;2023-07-20T05:18:36;19.90;74.40
7970;DHT22;4030;52.362;9.206;2023-07-20T05:21:02;19.90;74.40
7970;DHT22;4030;52.362;9.206;2023-07-20T05:23:28;20.00;74.50
7970;DHT22;4030;52.362;9.206;2023-07-20T05:25:58;20.00;74.50
7970;DHT22;4030;52.362;9.206;2023-07-20T05:28:25;20.00;74.60
7970;DHT22;4030;52.362;9.206;2023-07-20T05:30:52;20.00;74.60
7970;DHT22;4030;52.362;9.206;2023-07-20T05:33:19;20.00;75.50
7970;DHT22;4030;52.362;9.206;2023-07-20T05:35:47;19.90;74.50
7970;DHT22;4030;52.362;9.206;2023-07-20T05:38:13;20.00;74.70
7970;DHT22;4030;52.362;9.206;2023-07-20T05:40:45;20.00;74.70
7970;DHT22;4030;52.362;9.206;2023-07-20T05:43:12;20.10;74.80
7970;DHT22;4030;52.362;9.206;2023-07-20T05:45:37;20.10;74.90
7970;DHT22;4030;52.362;9.206;2023-07-20T05:48:07;20.10;74.80
7970;DHT22;4030;52.362;9.206;2023-07-20T05:50:35;20.10;74.90
7970;DHT22;4030;52.362;9.206;2023-07-20T05:53:00;20.10;75.00
7970;DHT22;4030;52.362;9.206;2023-07-20T05:55:26;20.10;75.00
7970;DHT22;4030;52.362;9.206;2023-07-20T05:57:52;20.10;75.00
7970;DHT22;4030;52.362;9.206;2023-07-20T06:00:18;20.20;75.20
7970;DHT22;4030;52.362;9.206;2023-07-20T06:02:44;20.20;75.30
7970;DHT22;4030;52.362;9.206;2023-07-20T06:05:10;20.20;75.30
7970;DHT22;4030;52.362;9.206;2023-07-20T06:07:38;20.20;75.20
7970;DHT22;4030;52.362;9.206;2023-07-20T06:10:05;20.30;75.00
7970;DHT22;4030;52.362;9.206;2023-07-20T06:12:32;20.40;74.60
7970;DHT22;4030;52.362;9.206;2023-07-20T06:15:03;20.50;74.30
7970;DHT22;4030;52.362;9.206;2023-07-20T06:17:29;20.50;74.00
7970;DHT22;4030;52.362;9.206;2023-07-20T06:19:55;20.60;74.00
7970;DHT22;4030;52.362;9.206;2023-07-20T06:22:20;20.70;74.10
7970;DHT22;4030;52.362;9.206;2023-07-20T06:24:46;20.70;74.20
7970;DHT22;4030;52.362;9.206;2023-07-20T06:27:12;20.70;74.30
7970;DHT22;4030;52.362;9.206;2023-07-20T06:29:38;20.80;74.40
7970;DHT22;4030;52.362;9.206;2023-07-20T06:32:04;20.80;74.30
7970;DHT22;4030;52.362;9.206;2023-07-20T06:34:30;20.90;74.30
7970;DHT22;4030;52.362;9.206;2023-07-20T06:36:56;21.00;74.40
7970;DHT22;4030;52.362;9.206;2023-07-20T06:39:22;21.00;74.50
7970;DHT22;4030;52.362;9.206;2023-07-20T06:41:48;21.00;74.60
7970;DHT22;4030;52.362;9.206;2023-07-20T06:44:13;21.10;74.60
7970;DHT22;4030;52.362;9.206;2023-07-20T06:46:39;21.20;74.60
7970;DHT22;4030;52.362;9.206;2023-07-20T06:49:06;21.20;74.50
7970;DHT22;4030;52.362;9.206;2023-07-20T06:51:33;21.40;74.60
7970;DHT22;4030;52.362;9.206;2023-07-20T06:53:59;21.40;74.60
7970;DHT22;4030;52.362;9.206;2023-07-20T06:56:24;21.50;74.60
7970;DHT22;4030;52.362;9.206;2023-07-20T06:58:50;21.60;74.60
7970;DHT22;4030;52.362;9.206;2023-07-20T07:01:16;21.60;74.60
7970;DHT22;4030;52.362;9.206;2023-07-20T07:03:42;21.60;74.50
7970;DHT22;4030;52.362;9.206;2023-07-20T07:06:09;21.60;74.30
7970;DHT22;4030;52.362;9.206;2023-07-20T07:08:35;21.70;74.20
7970;DHT22;4030;52.362;9.206;2023-07-20T07:11:01;21.70;74.20
7970;DHT22;4030;52.362;9.206;2023-07-20T07:13:27;21.90;74.20
7970;DHT22;4030;52.362;9.206;2023-07-20T07:15:53;22.00;73.90
7970;DHT22;4030;52.362;9.206;2023-07-20T07:18:18;22.10;73.70
7970;DHT22;4030;52.362;9.206;2023-07-20T07:20:51;22.30;73.60
7970;DHT22;4030;52.362;9.206;2023-07-20T07:23:17;22.40;73.20
7970;DHT22;4030;52.362;9.206;2023-07-20T07:25:43;22.50;73.10
7970;DHT22;4030;52.362;9.206;2023-07-20T07:28:09;22.60;73.00
7970;DHT22;4030;52.362;9.206;2023-07-20T07:30:35;22.60;72.90
7970;DHT22;4030;52.362;9.206;2023-07-20T07:33:00;22.60;72.90
7970;DHT22;4030;52.362;9.206;2023-07-20T07:35:26;22.60;72.80
7970;DHT22;4030;52.362;9.206;2023-07-20T07:37:52;22.50;72.80
7970;DHT22;4030;52.362;9.206;2023-07-20T07:40:17;22.50;73.10
7970;DHT22;4030;52.362;9.206;2023-07-20T07:42:43;22.40;73.00
7970;DHT22;4030;52.362;9.206;2023-07-20T07:45:09;22.50;72.90
7970;DHT22;4030;52.362;9.206;2023-07-20T07:47:35;22.60;72.70
7970;DHT22;4030;52.362;9.206;2023-07-20T07:50:01;22.70;72.50
7970;DHT22;4030;52.362;9.206;2023-07-20T07:52:27;22.70;72.30
7970;DHT22;4030;52.362;9.206;2023-07-20T07:54:53;22.90;72.20
7970;DHT22;4030;52.362;9.206;2023-07-20T07:57:18;23.00;72.20
7970;DHT22;4030;52.362;9.206;2023-07-20T07:59:44;23.10;71.90
7970;DHT22;4030;52.362;9.206;2023-07-20T08:02:10;23.20;71.70
7970;DHT22;4030;52.362;9.206;2023-07-20T08:04:35;23.40;71.50
7970;DHT22;4030;52.362;9.206;2023-07-20T08:07:03;23.60;71.50
7970;DHT22;4030;52.362;9.206;2023-07-20T08:09:29;23.70;71.30
7970;DHT22;4030;52.362;9.206;2023-07-20T08:11:55;23.80;71.10
7970;DHT22;4030;52.362;9.206;2023-07-20T08:14:21;23.80;71.00
7970;DHT22;4030;52.362;9.206;2023-07-20T08:16:46;23.80;70.90
7970;DHT22;4030;52.362;9.206;2023-07-20T08:19:12;23.80;70.80
7970;DHT22;4030;52.362;9.206;2023-07-20T08:21:38;23.90;70.80
7970;DHT22;4030;52.362;9.206;2023-07-20T08:24:04;23.90;70.60
7970;DHT22;4030;52.362;9.206;2023-07-20T08:26:30;24.00;70.40
7970;DHT22;4030;52.362;9.206;2023-07-20T08:28:55;24.00;70.30
7970;DHT22;4030;52.362;9.206;2023-07-20T08:31:21;24.10;70.10
7970;DHT22;4030;52.362;9.206;2023-07-20T08:33:47;24.30;69.80
7970;DHT22;4030;52.362;9.206;2023-07-20T08:36:14;24.40;69.40
7970;DHT22;4030;52.362;9.206;2023-07-20T08:38:39;24.60;69.20
7970;DHT22;4030;52.362;9.206;2023-07-20T08:41:05;24.70;68.80
7970;DHT22;4030;52.362;9.206;2023-07-20T08:43:31;24.80;68.60
7970;DHT22;4030;52.362;9.206;2023-07-20T08:45:58;25.00;68.30
7970;DHT22;4030;52.362;9.206;2023-07-20T08:48:25;25.10;67.80
7970;DHT22;4030;52.362;9.206;2023-07-20T08:50:53;25.30;67.50
7970;DHT22;4030;52.362;9.206;2023-07-20T08:53:22;25.40;67.10
7970;DHT22;4030;52.362;9.206;2023-07-20T08:55:51;25.40;66.90
7970;DHT22;4030;52.362;9.206;2023-07-20T08:58:18;25.50;66.70
7970;DHT22;4030;52.362;9.206;2023-07-20T09:00:44;25.60;66.40
7970;DHT22;4030;52.362;9.206;2023-07-20T09:03:11;25.70;66.00
7970;DHT22;4030;52.362;9.206;2023-07-20T09:05:37;25.80;65.60
7970;DHT22;4030;52.362;9.206;2023-07-20T09:08:04;26.00;66.00
7970;DHT22;4030;52.362;9.206;2023-07-20T09:10:30;26.10;64.70
7970;DHT22;4030;52.362;9.206;2023-07-20T09:12:56;26.20;64.30
7970;DHT22;4030;52.362;9.206;2023-07-20T09:15:23;26.30;63.90
7970;DHT22;4030;52.362;9.206;2023-07-20T09:17:50;26.50;63.40
7970;DHT22;4030;52.362;9.206;2023-07-20T09:20:17;26.60;63.00
7970;DHT22;4030;52.362;9.206;2023-07-20T09:22:44;26.50;62.60
7970;DHT22;4030;52.362;9.206;2023-07-20T09:25:14;26.60;62.20
7970;DHT22;4030;52.362;9.206;2023-07-20T09:27:42;26.70;61.70
7970;DHT22;4030;52.362;9.206;2023-07-20T09:30:11;26.80;61.30
7970;DHT22;4030;52.362;9.206;2023-07-20T09:32:49;26.90;60.70
7970;DHT22;4030;52.362;9.206;2023-07-20T09:35:18;27.00;60.30
7970;DHT22;4030;52.362;9.206;2023-07-20T09:37:58;27.00;60.10
7970;DHT22;4030;52.362;9.206;2023-07-20T09:40:26;26.90;60.80
7970;DHT22;4030;52.362;9.206;2023-07-20T09:42:53;26.90;59.90
7970;DHT22;4030;52.362;9.206;2023-07-20T09:45:49;26.70;59.70
7970;DHT22;4030;52.362;9.206;2023-07-20T09:48:14;26.60;59.40
7970;DHT22;4030;52.362;9.206;2023-07-20T09:50:42;26.70;59.00
7970;DHT22;4030;52.362;9.206;2023-07-20T09:53:12;26.80;58.50
7970;DHT22;4030;52.362;9.206;2023-07-20T09:55:41;27.00;58.20
7970;DHT22;4030;52.362;9.206;2023-07-20T09:58:09;27.10;57.90
7970;DHT22;4030;52.362;9.206;2023-07-20T10:00:37;27.20;57.70
7970;DHT22;4030;52.362;9.206;2023-07-20T10:03:06;27.30;57.80
7970;DHT22;4030;52.362;9.206;2023-07-20T10:05:38;27.30;57.60
7970;DHT22;4030;52.362;9.206;2023-07-20T10:08:11;27.20;57.40
7970;DHT22;4030;52.362;9.206;2023-07-20T10:10:40;27.20;57.40
7970;DHT22;4030;52.362;9.206;2023-07-20T10:13:12;27.10;57.30
7970;DHT22;4030;52.362;9.206;2023-07-20T10:15:46;27.00;57.20
7970;DHT22;4030;52.362;9.206;2023-07-20T10:18:17;26.90;56.90
7970;DHT22;4030;52.362;9.206;2023-07-20T10:21:07;27.00;56.60
7970;DHT22;4030;52.362;9.206;2023-07-20T10:23:34;26.90;56.20
7970;DHT22;4030;52.362;9.206;2023-07-20T10:26:01;26.80;56.00
7970;DHT22;4030;52.362;9.206;2023-07-20T10:28:28;26.70;56.00
7970;DHT22;4030;52.362;9.206;2023-07-20T10:30:54;26.80;55.90
7970;DHT22;4030;52.362;9.206;2023-07-20T10:33:20;26.90;55.90
7970;DHT22;4030;52.362;9.206;2023-07-20T10:35:57;27.00;56.00
7970;DHT22;4030;52.362;9.206;2023-07-20T10:41:04;26.90;55.90
7970;DHT22;4030;52.362;9.206;2023-07-20T10:43:30;26.80;56.00
7970;DHT22;4030;52.362;9.206;2023-07-20T10:45:57;26.70;55.90
7970;DHT22;4030;52.362;9.206;2023-07-20T10:48:24;26.60;56.00
7970;DHT22;4030;52.362;9.206;2023-07-20T10:51:10;26.50;56.20
7970;DHT22;4030;52.362;9.206;2023-07-20T10:53:38;26.40;56.30
7970;DHT22;4030;52.362;9.206;2023-07-20T10:56:24;26.40;56.30
7970;DHT22;4030;52.362;9.206;2023-07-20T10:58:58;26.50;56.20
7970;DHT22;4030;52.362;9.206;2023-07-20T11:01:28;26.80;56.00
7970;DHT22;4030;52.362;9.206;2023-07-20T11:03:57;27.10;55.80
7970;DHT22;4030;52.362;9.206;2023-07-20T11:09:11;27.80;55.00
7970;DHT22;4030;52.362;9.206;2023-07-20T11:11:40;28.10;54.50
7970;DHT22;4030;52.362;9.206;2023-07-20T11:14:19;28.40;54.10
7970;DHT22;4030;52.362;9.206;2023-07-20T11:16:47;28.50;53.50
7970;DHT22;4030;52.362;9.206;2023-07-20T11:19:20;28.70;53.90
7970;DHT22;4030;52.362;9.206;2023-07-20T11:21:56;28.60;52.90
7970;DHT22;4030;52.362;9.206;2023-07-20T11:24:23;28.50;52.80
7970;DHT22;4030;52.362;9.206;2023-07-20T11:26:50;28.40;53.00
7970;DHT22;4030;52.362;9.206;2023-07-20T11:29:18;28.20;53.20
7970;DHT22;4030;52.362;9.206;2023-07-20T11:31:46;28.10;53.40
7970;DHT22;4030;52.362;9.206;2023-07-20T11:34:14;28.00;53.60
7970;DHT22;4030;52.362;9.206;2023-07-20T11:36:44;27.90;53.70
7970;DHT22;4030;52.362;9.206;2023-07-20T11:39:14;27.80;53.80
7970;DHT22;4030;52.362;9.206;2023-07-20T11:41:50;27.80;53.90
7970;DHT22;4030;52.362;9.206;2023-07-20T11:44:23;27.70;54.00
7970;DHT22;4030;52.362;9.206;2023-07-20T11:47:03;27.60;54.00
7970;DHT22;4030;52.362;9.206;2023-07-20T11:49:37;27.50;54.00
7970;DHT22;4030;52.362;9.206;2023-07-20T11:52:07;27.40;54.00
7970;DHT22;4030;52.362;9.206;2023-07-20T11:54:38;27.30;53.90
7970;DHT22;4030;52.362;9.206;2023-07-20T11:57:04;27.50;54.00
7970;DHT22;4030;52.362;9.206;2023-07-20T11:59:33;27.70;53.90
7970;DHT22;4030;52.362;9.206;2023-07-20T12:02:01;27.90;53.80
7970;DHT22;4030;52.362;9.206;2023-07-20T12:04:31;27.90;53.80
7970;DHT22;4030;52.362;9.206;2023-07-20T12:06:58;27.80;53.70
7970;DHT22;4030;52.362;9.206;2023-07-20T12:09:24;27.70;53.90
7970;DHT22;4030;52.362;9.206;2023-07-20T12:11:50;27.60;54.00
7970;DHT22;4030;52.362;9.206;2023-07-20T12:14:16;27.50;54.10
7970;DHT22;4030;52.362;9.206;2023-07-20T12:16:43;27.50;54.20
7970;DHT22;4030;52.362;9.206;2023-07-20T12:19:11;27.30;54.40
7970;DHT22;4030;52.362;9.206;2023-07-20T12:21:40;27.20;54.30
7970;DHT22;4030;52.362;9.206;2023-07-20T12:24:08;27.00;54.20
7970;DHT22;4030;52.362;9.206;2023-07-20T12:26:35;26.90;54.20
7970;DHT22;4030;52.362;9.206;2023-07-20T12:29:01;27.00;53.90
7970;DHT22;4030;52.362;9.206;2023-07-20T12:31:29;27.20;53.60
7970;DHT22;4030;52.362;9.206;2023-07-20T12:33:57;27.30;53.30
7970;DHT22;4030;52.362;9.206;2023-07-20T12:36:23;27.40;53.20
7970;DHT22;4030;52.362;9.206;2023-07-20T12:38:49;27.40;53.10
7970;DHT22;4030;52.362;9.206;2023-07-20T12:41:16;27.40;52.90
7970;DHT22;4030;52.362;9.206;2023-07-20T12:43:42;27.30;52.70
7970;DHT22;4030;52.362;9.206;2023-07-20T12:46:10;27.20;52.60
7970;DHT22;4030;52.362;9.206;2023-07-20T12:48:40;27.10;52.40
7970;DHT22;4030;52.362;9.206;2023-07-20T12:51:08;27.10;52.50
7970;DHT22;4030;52.362;9.206;2023-07-20T12:53:35;26.90;52.30
7970;DHT22;4030;52.362;9.206;2023-07-20T12:56:01;26.90;52.50
7970;DHT22;4030;52.362;9.206;2023-07-20T12:58:26;26.60;52.60
7970;DHT22;4030;52.362;9.206;2023-07-20T13:00:53;26.60;52.70
7970;DHT22;4030;52.362;9.206;2023-07-20T13:03:19;26.40;52.60
7970;DHT22;4030;52.362;9.206;2023-07-20T13:05:45;26.40;52.60
7970;DHT22;4030;52.362;9.206;2023-07-20T13:08:12;26.40;52.50
7970;DHT22;4030;52.362;9.206;2023-07-20T13:10:38;26.40;52.30
7970;DHT22;4030;52.362;9.206;2023-07-20T13:13:07;26.60;52.30
7970;DHT22;4030;52.362;9.206;2023-07-20T13:15:41;26.80;52.00
7970;DHT22;4030;52.362;9.206;2023-07-20T13:18:08;27.10;51.70
7970;DHT22;4030;52.362;9.206;2023-07-20T13:20:33;27.50;51.20
7970;DHT22;4030;52.362;9.206;2023-07-20T13:22:59;27.80;50.80
7970;DHT22;4030;52.362;9.206;2023-07-20T13:25:25;27.90;50.80
7970;DHT22;4030;52.362;9.206;2023-07-20T13:27:51;28.00;50.70
7970;DHT22;4030;52.362;9.206;2023-07-20T13:30:16;28.10;50.70
7970;DHT22;4030;52.362;9.206;2023-07-20T13:32:43;28.30;50.40
7970;DHT22;4030;52.362;9.206;2023-07-20T13:35:10;28.40;50.30
7970;DHT22;4030;52.362;9.206;2023-07-20T13:37:39;28.30;50.20
7970;DHT22;4030;52.362;9.206;2023-07-20T13:40:06;28.40;50.20
7970;DHT22;4030;52.362;9.206;2023-07-20T13:42:33;28.50;49.90
7970;DHT22;4030;52.362;9.206;2023-07-20T13:44:59;28.60;49.80
7970;DHT22;4030;52.362;9.206;2023-07-20T13:47:26;28.80;49.60
7970;DHT22;4030;52.362;9.206;2023-07-20T13:49:52;29.10;49.30
7970;DHT22;4030;52.362;9.206;2023-07-20T13:52:18;29.30;48.90
7970;DHT22;4030;52.362;9.206;2023-07-20T13:54:44;29.50;48.70
7970;DHT22;4030;52.362;9.206;2023-07-20T13:57:09;29.80;48.50
7970;DHT22;4030;52.362;9.206;2023-07-20T13:59:35;30.10;48.30
7970;DHT22;4030;52.362;9.206;2023-07-20T14:02:01;30.30;47.60
7970;DHT22;4030;52.362;9.206;2023-07-20T14:04:26;30.60;47.20
7970;DHT22;4030;52.362;9.206;2023-07-20T14:06:53;30.80;46.80
7970;DHT22;4030;52.362;9.206;2023-07-20T14:09:18;30.90;46.60
7970;DHT22;4030;52.362;9.206;2023-07-20T14:11:44;31.00;46.40
7970;DHT22;4030;52.362;9.206;2023-07-20T14:14:09;31.10;46.20
7970;DHT22;4030;52.362;9.206;2023-07-20T14:16:35;31.10;46.00
7970;DHT22;4030;52.362;9.206;2023-07-20T14:19:01;31.00;46.10
7970;DHT22;4030;52.362;9.206;2023-07-20T14:21:27;30.80;46.10
7970;DHT22;4030;52.362;9.206;2023-07-20T14:23:54;30.60;46.10
7970;DHT22;4030;52.362;9.206;2023-07-20T14:26:19;31.90;47.20
7970;DHT22;4030;52.362;9.206;2023-07-20T14:28:45;30.20;46.20
7970;DHT22;4030;52.362;9.206;2023-07-20T14:31:11;30.00;46.20
7970;DHT22;4030;52.362;9.206;2023-07-20T14:33:37;29.90;46.30
7970;DHT22;4030;52.362;9.206;2023-07-20T14:36:03;29.70;46.30
7970;DHT22;4030;52.362;9.206;2023-07-20T14:38:30;29.60;47.10
7970;DHT22;4030;52.362;9.206;2023-07-20T14:40:56;29.40;46.40
7970;DHT22;4030;52.362;9.206;2023-07-20T14:43:22;29.20;46.60
7970;DHT22;4030;52.362;9.206;2023-07-20T14:45:48;29.00;46.80
7970;DHT22;4030;52.362;9.206;2023-07-20T14:48:14;28.80;46.80
7970;DHT22;4030;52.362;9.206;2023-07-20T14:50:40;28.50;46.70
7970;DHT22;4030;52.362;9.206;2023-07-20T14:53:05;28.30;46.60
7970;DHT22;4030;52.362;9.206;2023-07-20T14:55:33;28.10;46.80
7970;DHT22;4030;52.362;9.206;2023-07-20T14:57:59;27.90;47.10
7970;DHT22;4030;52.362;9.206;2023-07-20T15:00:24;27.60;47.40
7970;DHT22;4030;52.362;9.206;2023-07-20T15:02:51;27.50;47.80
7970;DHT22;4030;52.362;9.206;2023-07-20T15:05:24;27.30;48.10
7970;DHT22;4030;52.362;9.206;2023-07-20T15:07:52;27.20;48.40
7970;DHT22;4030;52.362;9.206;2023-07-20T15:10:18;27.10;48.70
7970;DHT22;4030;52.362;9.206;2023-07-20T15:12:44;26.90;48.90
7970;DHT22;4030;52.362;9.206;2023-07-20T15:15:14;26.80;48.90
7970;DHT22;4030;52.362;9.206;2023-07-20T15:17:41;26.70;49.10
7970;DHT22;4030;52.362;9.206;2023-07-20T15:20:11;26.70;49.30
7970;DHT22;4030;52.362;9.206;2023-07-20T15:22:38;26.60;49.50
7970;DHT22;4030;52.362;9.206;2023-07-20T15:25:05;26.50;49.60
7970;DHT22;4030;52.362;9.206;2023-07-20T15:27:32;26.50;49.80
7970;DHT22;4030;52.362;9.206;2023-07-20T15:29:58;26.40;49.90
7970;DHT22;4030;52.362;9.206;2023-07-20T15:32:24;26.40;50.00
7970;DHT22;4030;52.362;9.206;2023-07-20T15:34:50;26.40;50.10
7970;DHT22;4030;52.362;9.206;2023-07-20T15:37:16;26.40;50.20
7970;DHT22;4030;52.362;9.206;2023-07-20T15:39:41;26.40;50.40
7970;DHT22;4030;52.362;9.206;2023-07-20T15:42:07;26.40;50.40
7970;DHT22;4030;52.362;9.206;2023-07-20T15:44:33;26.40;50.40
7970;DHT22;4030;52.362;9.206;2023-07-20T15:46:59;26.40;50.50
7970;DHT22;4030;52.362;9.206;2023-07-20T15:49:26;26.40;50.50
7970;DHT22;4030;52.362;9.206;2023-07-20T15:51:53;26.40;50.50
7970;DHT22;4030;52.362;9.206;2023-07-20T15:54:19;26.40;50.40
7970;DHT22;4030;52.362;9.206;2023-07-20T15:56:45;26.40;50.30
7970;DHT22;4030;52.362;9.206;2023-07-20T15:59:12;26.40;50.30
7970;DHT22;4030;52.362;9.206;2023-07-20T16:01:39;26.50;50.20
7970;DHT22;4030;52.362;9.206;2023-07-20T16:04:05;26.40;50.20
7970;DHT22;4030;52.362;9.206;2023-07-20T16:06:32;26.40;50.20
7970;DHT22;4030;52.362;9.206;2023-07-20T16:08:58;26.40;50.30
7970;DHT22;4030;52.362;9.206;2023-07-20T16:11:24;26.30;50.20
7970;DHT22;4030;52.362;9.206;2023-07-20T16:13:50;26.30;50.20
7970;DHT22;4030;52.362;9.206;2023-07-20T16:16:17;26.30;50.30
7970;DHT22;4030;52.362;9.206;2023-07-20T16:18:43;26.20;50.40